createdAt,value
2017-10-18T00:00:13.191Z,95.00
2017-10-18T00:02:41.597Z,95.20
2017-10-18T00:05:10.017Z,95.30
2017-10-18T00:07:38.427Z,96.00
2017-10-18T00:10:06.839Z,95.60
2017-10-18T00:12:35.263Z,95.90
2017-10-18T00:15:03.507Z,95.80
2017-10-18T00:17:32.500Z,96.00
2017-10-18T00:20:01.499Z,96.10
2017-10-18T00:22:29.918Z,96.00
2017-10-18T00:24:58.318Z,96.30
2017-10-18T00:27:26.739Z,96.50
2017-10-18T00:29:55.162Z,96.30
2017-10-18T00:32:23.806Z,96.20
2017-10-18T00:34:52.236Z,96.10
2017-10-18T00:37:20.640Z,96.00
2017-10-18T00:39:49.823Z,96.10
2017-10-18T00:42:18.034Z,96.00
2017-10-18T00:44:46.448Z,96.40
2017-10-18T00:47:14.669Z,96.90
2017-10-18T00:49:43.511Z,96.30
2017-10-18T00:52:11.930Z,96.30
2017-10-18T00:54:41.106Z,96.30
2017-10-18T00:57:09.547Z,96.30
2017-10-18T00:59:37.766Z,96.30
2017-10-18T01:02:06.159Z,96.20
2017-10-18T01:04:35.387Z,96.20
2017-10-18T01:07:03.787Z,96.20
2017-10-18T01:09:32.207Z,96.30
2017-10-18T01:12:01.394Z,96.40
2017-10-18T01:14:30.571Z,96.40
2017-10-18T01:16:58.973Z,96.30
2017-10-18T01:19:27.277Z,96.50
2017-10-18T01:21:55.686Z,96.70
2017-10-18T01:24:24.092Z,96.50
2017-10-18T01:26:52.511Z,96.50
2017-10-18T01:29:20.916Z,96.40
2017-10-18T01:31:49.333Z,96.40
2017-10-18T01:34:18.771Z,96.50
2017-10-18T01:36:47.178Z,96.50
2017-10-18T01:39:15.644Z,96.50
2017-10-18T01:41:44.061Z,96.60
2017-10-18T01:44:12.468Z,96.60
2017-10-18T01:46:41.643Z,96.70
2017-10-18T01:49:10.054Z,96.70
2017-10-18T01:51:39.232Z,96.90
2017-10-18T01:54:07.642Z,96.90
2017-10-18T01:56:36.069Z,96.70
2017-10-18T01:59:04.473Z,96.90
2017-10-18T02:01:33.651Z,96.80
2017-10-18T02:04:02.099Z,96.80
2017-10-18T02:06:30.499Z,96.80
2017-10-18T02:08:58.901Z,96.90
2017-10-18T02:11:28.079Z,96.60
2017-10-18T02:13:56.487Z,96.60
2017-10-18T02:16:25.659Z,96.80
2017-10-18T02:18:54.072Z,96.80
2017-10-18T02:21:22.487Z,96.70
2017-10-18T02:23:51.417Z,96.70
2017-10-18T02:26:19.828Z,96.80
2017-10-18T02:28:48.238Z,96.90
2017-10-18T02:31:16.636Z,97.20
2017-10-18T02:33:45.057Z,97.20
2017-10-18T02:36:13.278Z,97.00
2017-10-18T02:38:41.686Z,97.20
2017-10-18T02:41:10.867Z,96.90
2017-10-18T02:43:39.268Z,96.90
2017-10-18T02:46:08.442Z,97.00
2017-10-18T02:48:36.955Z,96.90
2017-10-18T02:51:05.366Z,96.90
2017-10-18T02:53:33.762Z,96.80
2017-10-18T02:56:02.178Z,96.90
2017-10-18T02:58:31.346Z,96.90
2017-10-18T03:00:59.760Z,96.90
2017-10-18T03:03:28.938Z,96.80
2017-10-18T03:05:57.333Z,96.80
2017-10-18T03:08:26.501Z,97.00
2017-10-18T03:10:54.918Z,96.90
2017-10-18T03:13:23.330Z,96.90
2017-10-18T03:15:51.740Z,96.90
2017-10-18T03:18:20.957Z,96.70
2017-10-18T03:20:50.140Z,96.60
2017-10-18T03:23:19.118Z,96.80
2017-10-18T03:25:47.345Z,96.50
2017-10-18T03:28:15.741Z,96.60
2017-10-18T03:30:44.138Z,96.60
2017-10-18T03:33:12.561Z,96.70
2017-10-18T03:35:41.727Z,96.70
2017-10-18T03:38:11.347Z,96.60
2017-10-18T03:40:40.355Z,96.50
2017-10-18T03:43:09.519Z,96.60
2017-10-18T03:45:37.913Z,96.60
2017-10-18T03:48:07.119Z,96.50
2017-10-18T03:50:36.289Z,96.40
2017-10-18T03:53:04.699Z,96.40
2017-10-18T03:55:33.875Z,96.50
2017-10-18T03:58:03.061Z,96.50
2017-10-18T04:00:31.474Z,96.50
2017-10-18T04:03:00.655Z,96.50
2017-10-18T04:05:29.478Z,96.50
2017-10-18T04:07:57.881Z,96.50
2017-10-18T04:10:26.303Z,96.40
2017-10-18T04:12:55.471Z,96.40
2017-10-18T04:15:23.872Z,96.40
2017-10-18T04:17:52.291Z,96.50
2017-10-18T04:20:20.694Z,96.50
2017-10-18T04:22:49.090Z,96.40
2017-10-18T04:25:17.518Z,96.40
2017-10-18T04:27:45.918Z,96.40
2017-10-18T04:30:14.314Z,96.40
2017-10-18T04:32:42.730Z,96.30
2017-10-18T04:35:11.895Z,96.30
2017-10-18T04:37:40.302Z,96.30
2017-10-18T04:40:09.486Z,96.30
2017-10-18T04:42:38.114Z,96.50
2017-10-18T04:45:05.826Z,96.20
2017-10-18T04:47:34.251Z,96.20
2017-10-18T04:50:02.675Z,96.30
2017-10-18T04:52:31.081Z,96.20
2017-10-18T04:55:00.317Z,96.50
2017-10-18T04:57:28.891Z,96.50
2017-10-18T04:59:57.399Z,96.60
2017-10-18T05:02:25.819Z,96.50
2017-10-18T05:04:54.992Z,96.60
2017-10-18T05:07:23.063Z,96.60
2017-10-18T05:09:51.479Z,96.80
2017-10-18T05:12:19.974Z,96.80
2017-10-18T05:14:48.378Z,96.70
2017-10-18T05:17:16.636Z,96.70
2017-10-18T05:19:45.040Z,96.60
2017-10-18T05:22:12.560Z,96.60
2017-10-18T05:24:41.180Z,96.70
2017-10-18T05:27:10.902Z,96.60
2017-10-18T05:29:39.314Z,96.70
2017-10-18T05:32:07.734Z,96.90
2017-10-18T05:34:36.154Z,96.70
2017-10-18T05:37:05.326Z,96.70
2017-10-18T05:39:33.762Z,96.60
2017-10-18T05:42:02.174Z,96.60
2017-10-18T05:44:30.584Z,96.60
2017-10-18T05:46:59.089Z,96.60
2017-10-18T05:49:27.490Z,96.60
2017-10-18T05:51:55.713Z,96.60
2017-10-18T05:54:24.379Z,96.90
2017-10-18T05:56:52.597Z,96.90
2017-10-18T05:59:20.997Z,96.80
2017-10-18T06:01:49.680Z,97.00
2017-10-18T06:04:18.083Z,96.90
2017-10-18T06:06:46.495Z,97.00
2017-10-18T06:09:15.675Z,97.20
2017-10-18T06:11:44.091Z,97.10
2017-10-18T06:14:12.501Z,97.10
2017-10-18T06:16:40.746Z,97.20
2017-10-18T06:19:08.963Z,97.10
2017-10-18T06:21:37.369Z,97.30
2017-10-18T06:24:05.612Z,97.20
2017-10-18T06:26:34.018Z,97.40
2017-10-18T06:29:02.234Z,97.20
2017-10-18T06:31:30.650Z,97.30
2017-10-18T06:33:59.057Z,97.20
2017-10-18T06:36:28.226Z,97.30
2017-10-18T06:38:56.886Z,97.20
2017-10-18T06:41:25.296Z,97.10
2017-10-18T06:43:53.702Z,97.20
2017-10-18T06:46:22.885Z,96.90
2017-10-18T06:48:51.285Z,96.90
2017-10-18T06:51:20.446Z,96.70
2017-10-18T06:53:49.650Z,96.20
2017-10-18T06:56:18.052Z,96.20
2017-10-18T06:58:47.225Z,93.70
2017-10-18T07:01:15.649Z,93.60
2017-10-18T07:03:44.059Z,92.90
2017-10-18T07:06:12.471Z,92.70
2017-10-18T07:08:41.661Z,91.60
2017-10-18T07:11:10.083Z,91.70
2017-10-18T07:13:38.488Z,90.60
2017-10-18T07:16:06.909Z,86.40
2017-10-18T07:18:35.311Z,84.90
2017-10-18T07:21:03.715Z,83.50
2017-10-18T07:23:32.138Z,83.50
2017-10-18T07:26:01.311Z,78.00
2017-10-18T07:28:29.722Z,78.00
2017-10-18T07:30:58.916Z,78.30
2017-10-18T07:33:28.110Z,79.20
2017-10-18T07:35:57.094Z,79.60
2017-10-18T07:38:25.358Z,79.50
2017-10-18T07:40:53.758Z,79.20
2017-10-18T07:43:22.932Z,79.40
2017-10-18T07:45:51.357Z,79.30
2017-10-18T07:48:19.766Z,80.20
2017-10-18T07:50:48.250Z,82.70
2017-10-18T07:53:16.677Z,80.70
2017-10-18T07:55:45.851Z,82.70
2017-10-18T07:58:14.849Z,82.30
2017-10-18T08:00:44.040Z,78.00
2017-10-18T08:03:12.462Z,77.80
2017-10-18T08:05:40.866Z,75.80
2017-10-18T08:08:08.949Z,72.80
2017-10-18T08:10:37.365Z,72.90
2017-10-18T08:13:06.548Z,69.10
2017-10-18T08:15:35.392Z,62.80
2017-10-18T08:18:03.796Z,63.10
2017-10-18T08:20:32.207Z,60.80
2017-10-18T08:23:01.395Z,62.80
2017-10-18T08:25:30.226Z,58.00
2017-10-18T08:27:58.627Z,58.00
2017-10-18T08:30:27.046Z,57.70
2017-10-18T08:32:56.222Z,56.80
2017-10-18T08:35:24.666Z,56.80
2017-10-18T08:37:53.086Z,58.40
2017-10-18T08:40:22.270Z,63.90
2017-10-18T08:42:50.815Z,63.80
2017-10-18T08:45:19.482Z,61.40
2017-10-18T08:47:47.886Z,64.30
2017-10-18T08:50:16.289Z,63.40
2017-10-18T08:52:44.710Z,60.00
2017-10-18T08:55:13.126Z,56.60
2017-10-18T08:57:41.538Z,52.90
2017-10-18T09:00:12.649Z,50.80
2017-10-18T09:02:38.353Z,51.00
2017-10-18T09:05:06.572Z,48.30
2017-10-18T09:07:35.078Z,49.10
2017-10-18T09:10:03.485Z,48.60
2017-10-18T09:12:31.890Z,47.40
2017-10-18T09:15:00.315Z,48.70
2017-10-18T09:17:28.806Z,46.80
2017-10-18T09:19:57.219Z,47.50
2017-10-18T09:22:25.645Z,48.10
2017-10-18T09:24:54.062Z,47.60
2017-10-18T09:27:22.478Z,42.90
2017-10-18T09:29:50.921Z,43.10
2017-10-18T09:32:19.342Z,44.90
2017-10-18T09:34:48.523Z,43.00
2017-10-18T09:37:16.954Z,43.10
2017-10-18T09:39:45.372Z,40.60
2017-10-18T09:42:14.374Z,41.00
2017-10-18T09:44:42.807Z,41.00
2017-10-18T09:47:11.022Z,38.10
2017-10-18T09:49:39.434Z,38.80
2017-10-18T09:52:08.625Z,38.90
2017-10-18T09:54:37.810Z,34.50
2017-10-18T09:57:06.986Z,37.90
2017-10-18T09:59:35.420Z,37.90
2017-10-18T10:02:03.839Z,37.80
2017-10-18T10:04:32.246Z,35.90
2017-10-18T10:07:01.449Z,36.00
2017-10-18T10:09:30.618Z,37.00
2017-10-18T10:11:59.029Z,37.00
2017-10-18T10:14:28.219Z,35.40
2017-10-18T10:16:57.402Z,34.00
2017-10-18T10:19:25.816Z,33.90
2017-10-18T10:21:54.248Z,34.90
2017-10-18T10:24:22.672Z,34.50
2017-10-18T10:26:51.116Z,34.70
2017-10-18T10:29:19.587Z,33.20
2017-10-18T10:31:48.766Z,34.80
2017-10-18T10:34:17.180Z,34.80
2017-10-18T10:36:46.378Z,35.40
2017-10-18T10:39:15.367Z,33.50
2017-10-18T10:41:44.533Z,34.00
2017-10-18T10:44:12.964Z,34.00
2017-10-18T10:46:41.372Z,33.10
2017-10-18T10:49:09.789Z,33.20
2017-10-18T10:51:38.994Z,32.40
2017-10-18T10:54:07.995Z,33.40
2017-10-18T10:56:37.182Z,32.90
2017-10-18T10:59:06.386Z,34.50
2017-10-18T11:01:35.571Z,38.40
2017-10-18T11:04:03.985Z,38.30
2017-10-18T11:06:32.439Z,40.80
2017-10-18T11:09:01.619Z,44.00
2017-10-18T11:11:30.022Z,43.90
2017-10-18T11:13:58.455Z,44.50
2017-10-18T11:16:26.866Z,45.70
2017-10-18T11:18:56.035Z,44.30
2017-10-18T11:21:24.459Z,44.20
2017-10-18T11:23:53.640Z,37.90
2017-10-18T11:26:22.870Z,36.00
2017-10-18T11:28:51.304Z,35.90
2017-10-18T11:31:19.718Z,33.60
2017-10-18T11:33:48.127Z,34.80
2017-10-18T11:36:16.552Z,36.20
2017-10-18T11:38:45.754Z,42.70
2017-10-18T11:41:14.932Z,43.90
2017-10-18T11:43:43.345Z,43.70
2017-10-18T11:46:11.752Z,44.80
2017-10-18T11:48:40.166Z,45.70
2017-10-18T11:51:08.601Z,45.80
2017-10-18T11:53:37.022Z,43.50
2017-10-18T11:56:05.441Z,41.70
2017-10-18T11:58:34.021Z,40.70
2017-10-18T12:01:02.236Z,39.80
2017-10-18T12:03:30.646Z,40.00
2017-10-18T12:05:59.059Z,39.70
2017-10-18T12:08:27.475Z,41.60
2017-10-18T12:10:55.956Z,42.20
2017-10-18T12:13:24.375Z,41.80
2017-10-18T12:15:53.546Z,43.90
2017-10-18T12:18:21.948Z,43.90
2017-10-18T12:20:50.399Z,43.50
2017-10-18T12:23:18.809Z,44.80
2017-10-18T12:25:47.222Z,43.70
2017-10-18T12:28:15.643Z,45.30
2017-10-18T12:30:44.046Z,45.20
2017-10-18T12:33:13.227Z,44.70
2017-10-18T12:35:42.418Z,46.60
2017-10-18T12:38:11.586Z,45.40
2017-10-18T12:40:39.994Z,45.40
2017-10-18T12:43:08.434Z,46.60
2017-10-18T12:45:36.846Z,51.10
2017-10-18T12:48:05.250Z,49.30
2017-10-18T12:50:33.678Z,48.50
2017-10-18T12:53:02.107Z,49.70
2017-10-18T12:55:30.548Z,49.70
2017-10-18T12:57:58.982Z,51.80
2017-10-18T13:00:27.393Z,50.50
2017-10-18T13:02:55.810Z,53.00
2017-10-18T13:05:25.019Z,52.50
2017-10-18T13:07:53.436Z,52.50
2017-10-18T13:10:21.843Z,52.10
2017-10-18T13:12:50.257Z,52.00
2017-10-18T13:15:18.667Z,51.00
2017-10-18T13:17:47.100Z,51.20
2017-10-18T13:20:15.757Z,51.80
2017-10-18T13:22:44.174Z,52.10
2017-10-18T13:25:12.579Z,50.80
2017-10-18T13:27:41.018Z,51.70
2017-10-18T13:30:10.198Z,52.00
2017-10-18T13:32:38.868Z,51.90
2017-10-18T13:35:07.283Z,52.10
2017-10-18T13:37:36.466Z,50.40
2017-10-18T13:40:05.644Z,50.60
2017-10-18T13:42:34.066Z,50.20
2017-10-18T13:45:02.482Z,50.80
2017-10-18T13:47:30.886Z,50.30
2017-10-18T13:49:59.114Z,51.60
2017-10-18T13:52:27.519Z,53.10
2017-10-18T13:54:55.933Z,52.80
2017-10-18T13:57:25.120Z,52.70
2017-10-18T13:59:53.529Z,52.60
2017-10-18T14:02:21.929Z,50.50
2017-10-18T14:04:50.357Z,53.00
2017-10-18T14:07:19.556Z,50.60
2017-10-18T14:09:48.540Z,49.00
2017-10-18T14:12:16.965Z,49.10
2017-10-18T14:14:45.373Z,50.00
2017-10-18T14:17:13.791Z,51.80
2017-10-18T14:19:42.981Z,53.90
2017-10-18T14:22:12.157Z,54.50
2017-10-18T14:24:40.559Z,54.40
2017-10-18T14:27:09.748Z,54.70
2017-10-18T14:29:38.730Z,54.20
2017-10-18T14:32:06.945Z,53.50
2017-10-18T14:34:35.415Z,54.70
2017-10-18T14:37:03.831Z,54.10
2017-10-18T14:39:32.247Z,54.10
2017-10-18T14:42:02.180Z,55.70
2017-10-18T14:44:31.349Z,56.70
2017-10-18T14:46:59.752Z,56.70
2017-10-18T14:49:28.943Z,58.10
2017-10-18T14:51:58.125Z,58.30
2017-10-18T14:54:26.543Z,58.30
2017-10-18T14:56:54.984Z,58.40
2017-10-18T14:59:24.159Z,58.50
2017-10-18T15:01:52.382Z,58.40
2017-10-18T15:04:20.803Z,57.60
2017-10-18T15:06:49.206Z,58.40
2017-10-18T15:09:17.616Z,57.80
2017-10-18T15:11:46.804Z,58.10
2017-10-18T15:14:15.978Z,58.00
2017-10-18T15:16:44.392Z,58.00
2017-10-18T15:19:12.822Z,57.20
2017-10-18T15:21:41.227Z,58.30
2017-10-18T15:24:09.438Z,59.00
2017-10-18T15:26:37.669Z,58.90
2017-10-18T15:29:06.658Z,59.20
2017-10-18T15:31:35.644Z,59.90
2017-10-18T15:34:04.067Z,59.60
2017-10-18T15:36:32.289Z,59.10
2017-10-18T15:39:00.505Z,58.70
2017-10-18T15:41:28.991Z,58.70
2017-10-18T15:43:57.407Z,59.80
2017-10-18T15:46:25.806Z,60.70
2017-10-18T15:48:54.231Z,62.10
2017-10-18T15:51:22.462Z,63.30
2017-10-18T15:53:50.682Z,63.80
2017-10-18T15:56:19.106Z,64.70
2017-10-18T15:58:47.521Z,65.50
2017-10-18T16:01:15.934Z,66.20
2017-10-18T16:03:44.370Z,66.90
2017-10-18T16:06:13.546Z,67.80
2017-10-18T16:08:41.961Z,67.80
2017-10-18T16:11:10.402Z,68.60
2017-10-18T16:13:38.813Z,68.50
2017-10-18T16:16:07.235Z,68.90
2017-10-18T16:18:35.656Z,70.10
2017-10-18T16:21:05.066Z,72.70
2017-10-18T16:23:33.309Z,72.70
2017-10-18T16:26:01.742Z,73.60
2017-10-18T16:28:30.161Z,75.60
2017-10-18T16:30:58.584Z,76.40
2017-10-18T16:33:27.017Z,77.20
2017-10-18T16:35:55.427Z,77.40
2017-10-18T16:38:24.657Z,78.80
2017-10-18T16:40:53.079Z,78.70
2017-10-18T16:43:21.495Z,80.20
2017-10-18T16:45:49.726Z,80.40
2017-10-18T16:48:18.192Z,81.60
2017-10-18T16:50:46.426Z,81.40
2017-10-18T16:53:14.838Z,81.30
2017-10-18T16:55:43.256Z,81.40
2017-10-18T16:58:12.438Z,82.60
2017-10-18T17:00:40.842Z,82.40
2017-10-18T17:03:10.258Z,84.10
2017-10-18T17:05:38.675Z,84.10
2017-10-18T17:08:08.090Z,84.60
2017-10-18T17:10:36.728Z,83.80
2017-10-18T17:13:05.143Z,84.90
2017-10-18T17:15:33.562Z,85.20
2017-10-18T17:18:02.569Z,85.30
2017-10-18T17:20:30.978Z,85.30
2017-10-18T17:22:59.382Z,86.00
2017-10-18T17:25:27.815Z,86.30
2017-10-18T17:27:56.229Z,86.50
2017-10-18T17:30:24.664Z,86.50
2017-10-18T17:32:53.566Z,86.60
2017-10-18T17:35:22.048Z,86.90
2017-10-18T17:37:50.445Z,87.30
2017-10-18T17:40:18.861Z,87.50
2017-10-18T17:42:47.271Z,87.90
2017-10-18T17:45:15.671Z,87.90
2017-10-18T17:47:44.003Z,88.30
2017-10-18T17:50:13.177Z,88.80
2017-10-18T17:52:41.581Z,88.80
2017-10-18T17:55:10.786Z,89.20
2017-10-18T17:57:39.955Z,89.60
2017-10-18T18:00:08.363Z,89.40
2017-10-18T18:02:37.371Z,90.00
2017-10-18T18:05:05.779Z,90.00
2017-10-18T18:07:34.011Z,90.00
2017-10-18T18:10:02.247Z,89.90
2017-10-18T18:12:30.476Z,89.70
2017-10-18T18:14:58.695Z,89.80
2017-10-18T18:17:27.126Z,89.90
2017-10-18T18:19:55.346Z,90.00
2017-10-18T18:22:23.765Z,90.20
2017-10-18T18:24:52.368Z,90.30
2017-10-18T18:27:20.782Z,90.30
2017-10-18T18:29:49.198Z,90.40
2017-10-18T18:32:17.633Z,90.60
2017-10-18T18:34:46.048Z,90.70
2017-10-18T18:37:15.234Z,90.90
2017-10-18T18:39:44.428Z,90.90
2017-10-18T18:42:12.654Z,90.90
2017-10-18T18:44:41.078Z,90.80
2017-10-18T18:47:09.532Z,91.00
2017-10-18T18:49:37.947Z,91.10
2017-10-18T18:52:07.132Z,91.30
2017-10-18T18:54:35.551Z,91.20
2017-10-18T18:57:04.178Z,91.30
2017-10-18T18:59:33.438Z,91.20
2017-10-18T19:02:01.871Z,91.20
2017-10-18T19:04:30.290Z,91.20
2017-10-18T19:06:58.698Z,91.30
2017-10-18T19:09:26.942Z,91.20
2017-10-18T19:11:55.350Z,91.40
2017-10-18T19:14:23.795Z,91.60
2017-10-18T19:16:52.271Z,91.60
2017-10-18T19:19:20.490Z,91.60
2017-10-18T19:21:48.904Z,91.80
2017-10-18T19:24:17.969Z,92.00
2017-10-18T19:26:46.204Z,92.00
2017-10-18T19:29:14.668Z,92.10
2017-10-18T19:31:42.910Z,92.20
2017-10-18T19:34:11.138Z,92.40
2017-10-18T19:36:39.593Z,92.30
2017-10-18T19:39:08.043Z,92.30
2017-10-18T19:41:36.471Z,92.30
2017-10-18T19:44:04.883Z,92.30
2017-10-18T19:46:33.351Z,92.50
2017-10-18T19:49:01.770Z,92.90
2017-10-18T19:51:30.197Z,93.00
2017-10-18T19:53:58.655Z,93.00
2017-10-18T19:56:27.074Z,93.10
2017-10-18T19:58:55.318Z,93.00
2017-10-18T20:01:23.781Z,93.00
2017-10-18T20:03:52.198Z,93.10
2017-10-18T20:06:20.614Z,93.10
2017-10-18T20:08:49.806Z,93.30
2017-10-18T20:11:18.987Z,93.10
2017-10-18T20:13:47.402Z,93.10
2017-10-18T20:16:16.606Z,92.80
2017-10-18T20:18:44.817Z,92.90
2017-10-18T20:21:13.244Z,92.80
2017-10-18T20:23:42.450Z,92.80
2017-10-18T20:26:11.446Z,92.90
2017-10-18T20:28:39.854Z,92.90
2017-10-18T20:31:08.289Z,92.90
2017-10-18T20:33:37.480Z,93.10
2017-10-18T20:36:06.653Z,93.20
2017-10-18T20:38:35.086Z,93.20
2017-10-18T20:41:03.485Z,93.10
2017-10-18T20:43:31.716Z,93.00
2017-10-18T20:46:00.726Z,92.90
2017-10-18T20:48:28.957Z,92.90
2017-10-18T20:50:57.368Z,93.00
2017-10-18T20:53:26.561Z,93.10
2017-10-18T20:55:55.751Z,93.10
2017-10-18T20:58:24.929Z,93.10
2017-10-18T21:00:53.348Z,93.10
2017-10-18T21:03:21.777Z,93.20
2017-10-18T21:05:50.217Z,93.20
2017-10-18T21:08:18.827Z,93.10
2017-10-18T21:10:47.243Z,93.10
2017-10-18T21:13:16.519Z,93.00
2017-10-18T21:15:44.763Z,93.00
2017-10-18T21:18:13.169Z,93.00
2017-10-18T21:20:41.587Z,93.20
2017-10-18T21:23:10.045Z,93.20
2017-10-18T21:25:38.455Z,93.40
2017-10-18T21:28:06.875Z,93.50
2017-10-18T21:30:35.514Z,93.50
2017-10-18T21:33:03.933Z,93.30
2017-10-18T21:35:32.356Z,93.50
2017-10-18T21:38:01.355Z,93.50
2017-10-18T21:40:29.766Z,93.50
2017-10-18T21:42:58.186Z,93.40
2017-10-18T21:45:26.607Z,93.60
2017-10-18T21:47:55.014Z,93.70
2017-10-18T21:50:23.434Z,94.20
2017-10-18T21:52:52.617Z,94.30
2017-10-18T21:55:21.013Z,94.30
2017-10-18T21:57:50.186Z,94.20
2017-10-18T22:00:19.202Z,94.20
2017-10-18T22:02:48.374Z,94.10
2017-10-18T22:05:16.778Z,94.10
2017-10-18T22:07:45.971Z,94.30
2017-10-18T22:10:15.142Z,94.50
2017-10-18T22:12:43.550Z,94.50
2017-10-18T22:15:12.742Z,94.80
2017-10-18T22:17:41.916Z,95.30
2017-10-18T22:20:10.333Z,95.30
2017-10-18T22:22:38.757Z,96.00
2017-10-18T22:25:07.173Z,96.00
2017-10-18T22:27:36.346Z,95.00
2017-10-18T22:30:04.424Z,95.00
2017-10-18T22:32:32.840Z,94.80
2017-10-18T22:35:01.242Z,94.80
2017-10-18T22:37:29.657Z,95.00
2017-10-18T22:39:58.067Z,94.90
2017-10-18T22:42:26.474Z,95.10
2017-10-18T22:44:54.895Z,95.10
2017-10-18T22:47:23.299Z,94.90
2017-10-18T22:49:51.712Z,95.20
2017-10-18T22:52:20.135Z,95.20
2017-10-18T22:54:49.316Z,95.60
2017-10-18T22:57:17.723Z,95.60
2017-10-18T22:59:46.910Z,95.20
2017-10-18T23:02:16.094Z,95.10
2017-10-18T23:04:44.506Z,95.10
2017-10-18T23:07:13.012Z,95.00
2017-10-18T23:09:41.423Z,95.00
2017-10-18T23:12:09.842Z,95.20
2017-10-18T23:14:38.270Z,95.30
2017-10-18T23:17:06.682Z,95.30
2017-10-18T23:19:35.858Z,95.00
2017-10-18T23:22:04.290Z,94.90
2017-10-18T23:24:32.696Z,95.10
2017-10-18T23:27:01.105Z,95.10
2017-10-18T23:29:29.527Z,95.00
2017-10-18T23:31:57.928Z,95.50
2017-10-18T23:34:26.337Z,95.30
2017-10-18T23:36:54.755Z,95.30
2017-10-18T23:39:23.182Z,95.30
2017-10-18T23:41:51.598Z,95.10
2017-10-18T23:44:20.786Z,95.20
2017-10-18T23:46:49.951Z,95.10
2017-10-18T23:49:19.115Z,95.30
2017-10-18T23:51:47.538Z,95.10
2017-10-18T23:54:15.950Z,95.20
2017-10-18T23:56:44.354Z,95.10
2017-10-18T23:59:12.774Z,95.10
